SFR173 FALE-FACT
Flight info
| Callsign | SFR173 |
|---|---|
| Flight time | N/A |
| Altitude | 30000 |
| Route | TUBIN1B TUBIN UZ3 ESRUK UQ51 GETEN GETEN1B |
| Aircraft | B738/M-SDE2E3FGHIRWXY/LB1 |
Departure
| Time | 2026-04-28 14:41 |
|---|---|
| Airport | King Shaka International Airport (FALE) |
Arrival
| Time | N/A |
|---|---|
| Airport | Cape Town International Airport (FACT) |
| Time | Latitude | Longitude | Altitude | Speed | Heading |
|---|---|---|---|---|---|
| 2026-04-28 14:19 | -29.61703 | 31.10806 | 177 ft | 0 kts | 308° |
| 2026-04-28 14:31 | -29.61709 | 31.10814 | 279 ft | 2 kts | 307° |
| 2026-04-28 14:31 | -29.61719 | 31.10829 | 282 ft | 2 kts | 309° |
| 2026-04-28 14:32 | -29.61730 | 31.10843 | 281 ft | 2 kts | 313° |
| 2026-04-28 14:32 | -29.61743 | 31.10855 | 285 ft | 2 kts | 9° |
| 2026-04-28 14:32 | -29.61751 | 31.10851 | 283 ft | 0 kts | 37° |
| 2026-04-28 14:34 | -29.61751 | 31.10852 | 283 ft | 1 kts | 37° |
| 2026-04-28 14:34 | -29.61705 | 31.10891 | 279 ft | 14 kts | 37° |
| 2026-04-28 14:35 | -29.61712 | 31.11012 | 279 ft | 21 kts | 127° |
| 2026-04-28 14:35 | -29.61779 | 31.11130 | 279 ft | 19 kts | 93° |
| 2026-04-28 14:35 | -29.61684 | 31.11242 | 279 ft | 25 kts | 37° |
| 2026-04-28 14:35 | -29.61521 | 31.11384 | 279 ft | 31 kts | 37° |
| 2026-04-28 14:36 | -29.61371 | 31.11515 | 280 ft | 28 kts | 37° |
| 2026-04-28 14:36 | -29.61201 | 31.11663 | 280 ft | 33 kts | 37° |
| 2026-04-28 14:36 | -29.61009 | 31.11830 | 280 ft | 35 kts | 37° |
| 2026-04-28 14:36 | -29.60847 | 31.11972 | 280 ft | 24 kts | 37° |
| 2026-04-28 14:37 | -29.60699 | 31.12101 | 280 ft | 29 kts | 37° |
| 2026-04-28 14:37 | -29.60525 | 31.12253 | 280 ft | 33 kts | 37° |
| 2026-04-28 14:37 | -29.60349 | 31.12406 | 280 ft | 28 kts | 37° |
| 2026-04-28 14:37 | -29.60180 | 31.12554 | 280 ft | 32 kts | 37° |
| 2026-04-28 14:38 | -29.59988 | 31.12720 | 280 ft | 37 kts | 37° |
| 2026-04-28 14:38 | -29.59817 | 31.12870 | 280 ft | 31 kts | 37° |
| 2026-04-28 14:38 | -29.59773 | 31.12947 | 280 ft | 0 kts | 115° |
| 2026-04-28 14:39 | -29.59782 | 31.12965 | 280 ft | 6 kts | 122° |
| 2026-04-28 14:39 | -29.59831 | 31.13041 | 282 ft | 16 kts | 133° |
| 2026-04-28 14:39 | -29.59911 | 31.13032 | 281 ft | 12 kts | 217° |
| 2026-04-28 14:40 | -29.60159 | 31.12816 | 281 ft | 79 kts | 216° |
| 2026-04-28 14:40 | -29.60523 | 31.12501 | 281 ft | 118 kts | 217° |
| 2026-04-28 14:40 | -29.61641 | 31.11529 | 350 ft | 179 kts | 215° |
| 2026-04-28 14:40 | -29.62684 | 31.10585 | 879 ft | 196 kts | 215° |
| 2026-04-28 14:41 | -29.63753 | 31.09608 | 1491 ft | 198 kts | 216° |
| 2026-04-28 14:41 | -29.64806 | 31.08687 | 2402 ft | 190 kts | 214° |
| 2026-04-28 14:41 | -29.65903 | 31.07704 | 2717 ft | 210 kts | 215° |
| 2026-04-28 14:41 | -29.67112 | 31.06629 | 3118 ft | 224 kts | 215° |
| 2026-04-28 14:42 | -29.68368 | 31.05534 | 3749 ft | 228 kts | 218° |
| 2026-04-28 14:42 | -29.69326 | 31.04077 | 4470 ft | 234 kts | 239° |
| 2026-04-28 14:42 | -29.70120 | 31.02350 | 4917 ft | 253 kts | 241° |
| 2026-04-28 14:42 | -29.70945 | 31.00533 | 5652 ft | 257 kts | 242° |
| 2026-04-28 14:43 | -29.71782 | 30.98703 | 6442 ft | 261 kts | 242° |
| 2026-04-28 14:43 | -29.72641 | 30.96852 | 7226 ft | 263 kts | 243° |
| 2026-04-28 14:43 | -29.73513 | 30.94992 | 7962 ft | 266 kts | 243° |
| 2026-04-28 14:43 | -29.74401 | 30.93116 | 8752 ft | 268 kts | 244° |
| 2026-04-28 14:44 | -29.75298 | 30.91232 | 9545 ft | 270 kts | 244° |
| 2026-04-28 14:44 | -29.76206 | 30.89333 | 10282 ft | 272 kts | 244° |
| 2026-04-28 14:44 | -29.77143 | 30.87373 | 10605 ft | 290 kts | 244° |
| 2026-04-28 14:44 | -29.78153 | 30.85263 | 10789 ft | 312 kts | 244° |
| 2026-04-28 14:45 | -29.79239 | 30.83001 | 10951 ft | 333 kts | 244° |
| 2026-04-28 14:45 | -29.80395 | 30.80599 | 11114 ft | 352 kts | 244° |
| 2026-04-28 14:45 | -29.81608 | 30.78082 | 11415 ft | 364 kts | 243° |
| 2026-04-28 14:45 | -29.82849 | 30.75516 | 12036 ft | 366 kts | 244° |
| 2026-04-28 14:46 | -29.84076 | 30.72980 | 12887 ft | 361 kts | 244° |
| 2026-04-28 14:46 | -29.85300 | 30.70452 | 13609 ft | 361 kts | 244° |
| 2026-04-28 14:46 | -29.86522 | 30.67920 | 14208 ft | 361 kts | 244° |
| 2026-04-28 14:46 | -29.87744 | 30.65383 | 14718 ft | 362 kts | 244° |
| 2026-04-28 14:47 | -29.88967 | 30.62844 | 15262 ft | 363 kts | 244° |
| 2026-04-28 14:47 | -29.90191 | 30.60298 | 15800 ft | 363 kts | 245° |
| 2026-04-28 14:47 | -29.91416 | 30.57748 | 16329 ft | 364 kts | 245° |
| 2026-04-28 14:47 | -29.92643 | 30.55191 | 16842 ft | 365 kts | 245° |
| 2026-04-28 14:48 | -29.93873 | 30.52629 | 17357 ft | 366 kts | 245° |
| 2026-04-28 14:48 | -29.95106 | 30.50058 | 17837 ft | 367 kts | 245° |
| 2026-04-28 14:48 | -29.96341 | 30.47482 | 18325 ft | 367 kts | 245° |
| 2026-04-28 14:48 | -29.97579 | 30.44898 | 18728 ft | 369 kts | 245° |
| 2026-04-28 14:49 | -29.98820 | 30.42304 | 19124 ft | 370 kts | 245° |
| 2026-04-28 14:49 | -30.00063 | 30.39707 | 19577 ft | 369 kts | 245° |
| 2026-04-28 14:49 | -30.01304 | 30.37112 | 19918 ft | 371 kts | 246° |
| 2026-04-28 14:49 | -30.02557 | 30.34490 | 20198 ft | 375 kts | 245° |
| 2026-04-28 14:50 | -30.03810 | 30.31865 | 20663 ft | 373 kts | 245° |
| 2026-04-28 14:50 | -30.05063 | 30.29240 | 21022 ft | 374 kts | 246° |
| 2026-04-28 14:50 | -30.06316 | 30.26613 | 21418 ft | 372 kts | 245° |
| 2026-04-28 14:50 | -30.07553 | 30.24017 | 21672 ft | 376 kts | 246° |
| 2026-04-28 14:51 | -30.08807 | 30.21384 | 22111 ft | 374 kts | 246° |
| 2026-04-28 14:51 | -30.10081 | 30.18705 | 22306 ft | 378 kts | 246° |
| 2026-04-28 14:51 | -30.11346 | 30.16043 | 22633 ft | 378 kts | 246° |
| 2026-04-28 14:51 | -30.12597 | 30.13412 | 22960 ft | 378 kts | 246° |
| 2026-04-28 14:52 | -30.13864 | 30.10745 | 23254 ft | 379 kts | 246° |
| 2026-04-28 14:52 | -30.15133 | 30.08072 | 23506 ft | 380 kts | 246° |
| 2026-04-28 14:52 | -30.16404 | 30.05390 | 23765 ft | 381 kts | 246° |
| 2026-04-28 14:52 | -30.17677 | 30.02704 | 23982 ft | 382 kts | 246° |
| 2026-04-28 14:53 | -30.18950 | 30.00014 | 24225 ft | 381 kts | 246° |
| 2026-04-28 14:53 | -30.20224 | 29.97324 | 24409 ft | 382 kts | 246° |
| 2026-04-28 14:53 | -30.21501 | 29.94622 | 24604 ft | 383 kts | 246° |
| 2026-04-28 14:53 | -30.22779 | 29.91918 | 24809 ft | 384 kts | 246° |
| 2026-04-28 14:54 | -30.24059 | 29.89209 | 25011 ft | 384 kts | 247° |
| 2026-04-28 14:54 | -30.25333 | 29.86510 | 25232 ft | 383 kts | 246° |
| 2026-04-28 14:54 | -30.26612 | 29.83796 | 25352 ft | 385 kts | 246° |
| 2026-04-28 14:54 | -30.27899 | 29.81067 | 25487 ft | 386 kts | 247° |
| 2026-04-28 14:55 | -30.29116 | 29.78307 | 25669 ft | 384 kts | 249° |
| 2026-04-28 14:55 | -30.30251 | 29.75513 | 25821 ft | 384 kts | 250° |
| 2026-04-28 14:55 | -30.31371 | 29.72702 | 25956 ft | 385 kts | 250° |
| 2026-04-28 14:55 | -30.32487 | 29.69884 | 26074 ft | 385 kts | 250° |
| 2026-04-28 14:56 | -30.33606 | 29.67061 | 26202 ft | 386 kts | 250° |
| 2026-04-28 14:56 | -30.34725 | 29.64245 | 26373 ft | 385 kts | 250° |
| 2026-04-28 14:56 | -30.35846 | 29.61429 | 26577 ft | 383 kts | 250° |
| 2026-04-28 14:56 | -30.36961 | 29.58633 | 26758 ft | 382 kts | 250° |
| 2026-04-28 14:57 | -30.38072 | 29.55846 | 26907 ft | 381 kts | 250° |
| 2026-04-28 14:57 | -30.38806 | 29.54005 | 26990 ft | 381 kts | 250° |
| 2026-04-28 14:57 | -30.40289 | 29.50283 | 27234 ft | 380 kts | 250° |
| 2026-04-28 14:57 | -30.41395 | 29.47506 | 27442 ft | 378 kts | 250° |
| 2026-04-28 14:58 | -30.42494 | 29.44745 | 27665 ft | 377 kts | 250° |
| 2026-04-28 14:58 | -30.43588 | 29.41993 | 27858 ft | 376 kts | 251° |
| 2026-04-28 14:58 | -30.44680 | 29.39245 | 28057 ft | 375 kts | 251° |
| 2026-04-28 14:58 | -30.45767 | 29.36505 | 28228 ft | 374 kts | 251° |
| 2026-04-28 14:59 | -30.46854 | 29.33765 | 28442 ft | 373 kts | 251° |
| 2026-04-28 14:59 | -30.47937 | 29.31033 | 28661 ft | 373 kts | 251° |
| 2026-04-28 14:59 | -30.49017 | 29.28306 | 28868 ft | 371 kts | 251° |
| 2026-04-28 14:59 | -30.50093 | 29.25590 | 29096 ft | 370 kts | 251° |
| 2026-04-28 15:00 | -30.51163 | 29.22883 | 29301 ft | 369 kts | 251° |
| 2026-04-28 15:00 | -30.52231 | 29.20180 | 29512 ft | 368 kts | 251° |
| 2026-04-28 15:00 | -30.53296 | 29.17484 | 29745 ft | 367 kts | 251° |
| 2026-04-28 15:00 | -30.54356 | 29.14799 | 29972 ft | 366 kts | 252° |
| 2026-04-28 15:01 | -30.55413 | 29.12118 | 30144 ft | 365 kts | 252° |
| 2026-04-28 15:01 | -30.57523 | 29.06758 | 30161 ft | 366 kts | 252° |
| 2026-04-28 15:02 | -30.59638 | 29.01380 | 30162 ft | 366 kts | 252° |
| 2026-04-28 15:02 | -30.61733 | 28.96045 | 30158 ft | 366 kts | 252° |
| 2026-04-28 15:03 | -30.63841 | 28.90669 | 30155 ft | 365 kts | 252° |
| 2026-04-28 15:03 | -30.65942 | 28.85304 | 30161 ft | 365 kts | 252° |
| 2026-04-28 15:04 | -30.68035 | 28.79950 | 30159 ft | 363 kts | 252° |
| 2026-04-28 15:04 | -30.70121 | 28.74607 | 30136 ft | 362 kts | 252° |
| 2026-04-28 15:05 | -30.72196 | 28.69284 | 30168 ft | 361 kts | 252° |
| 2026-04-28 15:05 | -30.74272 | 28.63948 | 30148 ft | 363 kts | 252° |
| 2026-04-28 15:06 | -30.76352 | 28.58600 | 30142 ft | 362 kts | 252° |
| 2026-04-28 15:06 | -30.78423 | 28.53270 | 30155 ft | 361 kts | 252° |
| 2026-04-28 15:07 | -30.80487 | 28.47951 | 30141 ft | 360 kts | 252° |
| 2026-04-28 15:07 | -30.82542 | 28.42644 | 30156 ft | 360 kts | 252° |
| 2026-04-28 15:08 | -30.84593 | 28.37339 | 30168 ft | 360 kts | 252° |
| 2026-04-28 15:08 | -30.86651 | 28.32012 | 30148 ft | 360 kts | 252° |
| 2026-04-28 15:09 | -30.88705 | 28.26684 | 30156 ft | 361 kts | 252° |
| 2026-04-28 15:09 | -30.90409 | 28.22259 | 30173 ft | 360 kts | 252° |
| 2026-04-28 15:10 | -30.92794 | 28.16035 | 30173 ft | 360 kts | 252° |
| 2026-04-28 15:10 | -30.94484 | 28.11607 | 30160 ft | 360 kts | 252° |
| 2026-04-28 15:11 | -30.96515 | 28.06283 | 30152 ft | 359 kts | 252° |
| 2026-04-28 15:11 | -30.98544 | 28.00956 | 30211 ft | 360 kts | 252° |
| 2026-04-28 15:12 | -31.00576 | 27.95602 | 30152 ft | 362 kts | 252° |
| 2026-04-28 15:12 | -31.02621 | 27.90244 | 30195 ft | 362 kts | 252° |
| 2026-04-28 15:13 | -31.04683 | 27.84862 | 30204 ft | 364 kts | 252° |
| 2026-04-28 15:13 | -31.06745 | 27.79474 | 30204 ft | 362 kts | 252° |
| 2026-04-28 15:14 | -31.08797 | 27.74099 | 30183 ft | 363 kts | 252° |
| 2026-04-28 15:14 | -31.10847 | 27.68719 | 30194 ft | 363 kts | 252° |
| 2026-04-28 15:15 | -31.12892 | 27.63346 | 30189 ft | 362 kts | 252° |
| 2026-04-28 15:15 | -31.14933 | 27.57976 | 30236 ft | 361 kts | 252° |
| 2026-04-28 15:16 | -31.16975 | 27.52591 | 30209 ft | 363 kts | 252° |
| 2026-04-28 15:16 | -31.19000 | 27.47241 | 30201 ft | 363 kts | 252° |
| 2026-04-28 15:17 | -31.21052 | 27.41809 | 30213 ft | 363 kts | 252° |
| 2026-04-28 15:17 | -31.23089 | 27.36415 | 30205 ft | 363 kts | 252° |
| 2026-04-28 15:18 | -31.25111 | 27.31052 | 30224 ft | 363 kts | 252° |
| 2026-04-28 15:18 | -31.27142 | 27.25658 | 30212 ft | 362 kts | 252° |
| 2026-04-28 15:19 | -31.29166 | 27.20270 | 30216 ft | 362 kts | 252° |
| 2026-04-28 15:19 | -31.31192 | 27.14871 | 30217 ft | 362 kts | 252° |
| 2026-04-28 15:20 | -31.33210 | 27.09483 | 30230 ft | 362 kts | 252° |
| 2026-04-28 15:20 | -31.35244 | 27.04044 | 30214 ft | 363 kts | 252° |
| 2026-04-28 15:21 | -31.37250 | 26.98676 | 30234 ft | 362 kts | 252° |
| 2026-04-28 15:21 | -31.39250 | 26.93270 | 30231 ft | 362 kts | 252° |
| 2026-04-28 15:22 | -31.41238 | 26.87859 | 30215 ft | 362 kts | 253° |
| 2026-04-28 15:22 | -31.43224 | 26.82445 | 30226 ft | 362 kts | 252° |
| 2026-04-28 15:23 | -31.45214 | 26.77017 | 30226 ft | 363 kts | 253° |
| 2026-04-28 15:23 | -31.47200 | 26.71589 | 30238 ft | 363 kts | 253° |
| 2026-04-28 15:24 | -31.49187 | 26.66153 | 30234 ft | 363 kts | 253° |
| 2026-04-28 15:24 | -31.51175 | 26.60708 | 30238 ft | 363 kts | 253° |
| 2026-04-28 15:25 | -31.53161 | 26.55259 | 30229 ft | 364 kts | 253° |
| 2026-04-28 15:25 | -31.55148 | 26.49802 | 30237 ft | 364 kts | 253° |
| 2026-04-28 15:26 | -31.57148 | 26.44343 | 30236 ft | 364 kts | 252° |
| 2026-04-28 15:26 | -31.59148 | 26.38886 | 30227 ft | 364 kts | 252° |
| 2026-04-28 15:27 | -31.61140 | 26.33439 | 30217 ft | 363 kts | 252° |
| 2026-04-28 15:27 | -31.63127 | 26.27995 | 30231 ft | 363 kts | 253° |
| 2026-04-28 15:28 | -31.65115 | 26.22530 | 30233 ft | 365 kts | 253° |
| 2026-04-28 15:28 | -31.67109 | 26.17049 | 30232 ft | 365 kts | 253° |
| 2026-04-28 15:29 | -31.69100 | 26.11565 | 30238 ft | 365 kts | 253° |
| 2026-04-28 15:29 | -31.71090 | 26.06074 | 30227 ft | 365 kts | 253° |
| 2026-04-28 15:30 | -31.73073 | 26.00595 | 30247 ft | 365 kts | 253° |
| 2026-04-28 15:30 | -31.75058 | 25.95099 | 30232 ft | 365 kts | 253° |
| 2026-04-28 15:31 | -31.77038 | 25.89610 | 30234 ft | 365 kts | 253° |
| 2026-04-28 15:31 | -31.79004 | 25.84150 | 30224 ft | 365 kts | 253° |
| 2026-04-28 15:32 | -31.80981 | 25.78652 | 30228 ft | 365 kts | 253° |
| 2026-04-28 15:32 | -31.82952 | 25.73161 | 30229 ft | 365 kts | 253° |
| 2026-04-28 15:33 | -31.84921 | 25.67667 | 30236 ft | 364 kts | 253° |
| 2026-04-28 15:33 | -31.86888 | 25.62167 | 30234 ft | 365 kts | 253° |
| 2026-04-28 15:34 | -31.88856 | 25.56657 | 30233 ft | 365 kts | 253° |
| 2026-04-28 15:34 | -31.90823 | 25.51140 | 30225 ft | 366 kts | 253° |
| 2026-04-28 15:35 | -31.92786 | 25.45629 | 30236 ft | 365 kts | 253° |
| 2026-04-28 15:35 | -31.95727 | 25.37349 | 30235 ft | 365 kts | 253° |
| 2026-04-28 15:36 | -31.97686 | 25.31825 | 30236 ft | 366 kts | 253° |
| 2026-04-28 15:36 | -31.99643 | 25.26295 | 30241 ft | 366 kts | 253° |
| 2026-04-28 15:37 | -32.01602 | 25.20752 | 30239 ft | 366 kts | 253° |
| 2026-04-28 15:37 | -32.03227 | 25.16147 | 30241 ft | 366 kts | 253° |
| 2026-04-28 15:38 | -32.05512 | 25.09659 | 30243 ft | 367 kts | 253° |
| 2026-04-28 15:38 | -32.07467 | 25.04097 | 30248 ft | 367 kts | 253° |
| 2026-04-28 15:39 | -32.09421 | 24.98533 | 30242 ft | 367 kts | 253° |
| 2026-04-28 15:39 | -32.11371 | 24.92969 | 30239 ft | 367 kts | 253° |
| 2026-04-28 15:40 | -32.13321 | 24.87396 | 30258 ft | 368 kts | 253° |
| 2026-04-28 15:40 | -32.15272 | 24.81811 | 30233 ft | 368 kts | 253° |
| 2026-04-28 15:41 | -32.17220 | 24.76225 | 30244 ft | 369 kts | 253° |
| 2026-04-28 15:41 | -32.19156 | 24.70661 | 30235 ft | 369 kts | 253° |
| 2026-04-28 15:42 | -32.21106 | 24.65048 | 30239 ft | 370 kts | 253° |
| 2026-04-28 15:42 | -32.23054 | 24.59440 | 30214 ft | 369 kts | 253° |
| 2026-04-28 15:43 | -32.24991 | 24.53845 | 30247 ft | 368 kts | 253° |
| 2026-04-28 15:43 | -32.26918 | 24.48254 | 30262 ft | 364 kts | 253° |
| 2026-04-28 15:44 | -32.28840 | 24.42689 | 30235 ft | 368 kts | 253° |
| 2026-04-28 15:44 | -32.30776 | 24.37076 | 30241 ft | 369 kts | 253° |
| 2026-04-28 15:45 | -32.32713 | 24.31448 | 30239 ft | 370 kts | 253° |
| 2026-04-28 15:45 | -32.34651 | 24.25804 | 30227 ft | 369 kts | 254° |
| 2026-04-28 15:46 | -32.36583 | 24.20170 | 30247 ft | 370 kts | 253° |
| 2026-04-28 15:46 | -32.38504 | 24.14554 | 30245 ft | 371 kts | 253° |
| 2026-04-28 15:47 | -32.40449 | 24.08860 | 30247 ft | 371 kts | 253° |
| 2026-04-28 15:47 | -32.42369 | 24.03231 | 30244 ft | 371 kts | 254° |
| 2026-04-28 15:48 | -32.44295 | 23.97567 | 30246 ft | 371 kts | 254° |
| 2026-04-28 15:48 | -32.46214 | 23.91893 | 30254 ft | 371 kts | 254° |
| 2026-04-28 15:49 | -32.48127 | 23.86221 | 30251 ft | 371 kts | 254° |
| 2026-04-28 15:49 | -32.50041 | 23.80542 | 30250 ft | 371 kts | 254° |
| 2026-04-28 15:50 | -32.51949 | 23.74869 | 30247 ft | 371 kts | 254° |
| 2026-04-28 15:50 | -32.53861 | 23.69174 | 30248 ft | 372 kts | 254° |
| 2026-04-28 15:51 | -32.55769 | 23.63480 | 30246 ft | 372 kts | 254° |
| 2026-04-28 15:51 | -32.57673 | 23.57790 | 30243 ft | 372 kts | 254° |
| 2026-04-28 15:52 | -32.59580 | 23.52081 | 30251 ft | 372 kts | 254° |
| 2026-04-28 15:52 | -32.61480 | 23.46381 | 30240 ft | 372 kts | 254° |
| 2026-04-28 15:53 | -32.63380 | 23.40672 | 30246 ft | 372 kts | 254° |
| 2026-04-28 15:53 | -32.64007 | 23.38786 | 30252 ft | 372 kts | 254° |